sensor_id;sensor_type;location;lat;lon;timestamp;temperature;humidity
3842;DHT22;1936;47.074;15.336;2023-03-04T00:00:59;2.00;82.30
3842;DHT22;1936;47.074;15.336;2023-03-04T00:03:04;2.10;82.20
3842;DHT22;1936;47.074;15.336;2023-03-04T00:05:08;2.20;81.80
3842;DHT22;1936;47.074;15.336;2023-03-04T00:07:12;2.10;81.90
3842;DHT22;1936;47.074;15.336;2023-03-04T00:09:18;2.20;81.30
3842;DHT22;1936;47.074;15.336;2023-03-04T00:11:21;2.10;81.20
3842;DHT22;1936;47.074;15.336;2023-03-04T00:13:25;2.10;81.10
3842;DHT22;1936;47.074;15.336;2023-03-04T00:15:29;2.10;80.80
3842;DHT22;1936;47.074;15.336;2023-03-04T00:17:32;2.10;80.40
3842;DHT22;1936;47.074;15.336;2023-03-04T00:19:37;2.00;80.80
3842;DHT22;1936;47.074;15.336;2023-03-04T00:21:41;2.00;81.60
3842;DHT22;1936;47.074;15.336;2023-03-04T00:23:44;1.90;81.60
3842;DHT22;1936;47.074;15.336;2023-03-04T00:25:48;1.80;81.60
3842;DHT22;1936;47.074;15.336;2023-03-04T00:27:51;1.80;82.30
3842;DHT22;1936;47.074;15.336;2023-03-04T00:29:56;1.80;81.80
3842;DHT22;1936;47.074;15.336;2023-03-04T00:31:59;1.70;81.80
3842;DHT22;1936;47.074;15.336;2023-03-04T00:34:03;1.80;81.80
3842;DHT22;1936;47.074;15.336;2023-03-04T00:36:09;1.90;81.10
3842;DHT22;1936;47.074;15.336;2023-03-04T00:38:13;1.80;81.20
3842;DHT22;1936;47.074;15.336;2023-03-04T00:40:17;1.80;82.00
3842;DHT22;1936;47.074;15.336;2023-03-04T00:42:20;1.70;81.60
3842;DHT22;1936;47.074;15.336;2023-03-04T00:44:24;1.80;81.10
3842;DHT22;1936;47.074;15.336;2023-03-04T00:46:29;1.80;80.60
3842;DHT22;1936;47.074;15.336;2023-03-04T00:48:32;1.70;80.60
3842;DHT22;1936;47.074;15.336;2023-03-04T00:50:36;1.70;80.80
3842;DHT22;1936;47.074;15.336;2023-03-04T00:52:41;1.70;80.80
3842;DHT22;1936;47.074;15.336;2023-03-04T00:54:45;1.60;80.70
3842;DHT22;1936;47.074;15.336;2023-03-04T00:56:48;1.50;80.80
3842;DHT22;1936;47.074;15.336;2023-03-04T00:58:52;1.50;81.30
3842;DHT22;1936;47.074;15.336;2023-03-04T01:00:56;1.50;81.00
3842;DHT22;1936;47.074;15.336;2023-03-04T01:02:59;1.50;81.10
3842;DHT22;1936;47.074;15.336;2023-03-04T01:05:04;1.50;80.80
3842;DHT22;1936;47.074;15.336;2023-03-04T01:07:07;1.60;80.50
3842;DHT22;1936;47.074;15.336;2023-03-04T01:09:13;1.50;79.80
3842;DHT22;1936;47.074;15.336;2023-03-04T01:11:16;1.40;81.00
3842;DHT22;1936;47.074;15.336;2023-03-04T01:13:20;1.40;81.40
3842;DHT22;1936;47.074;15.336;2023-03-04T01:15:23;1.40;81.20
3842;DHT22;1936;47.074;15.336;2023-03-04T01:17:27;1.30;81.10
3842;DHT22;1936;47.074;15.336;2023-03-04T01:19:30;1.30;81.20
3842;DHT22;1936;47.074;15.336;2023-03-04T01:21:34;1.40;80.70
3842;DHT22;1936;47.074;15.336;2023-03-04T01:23:38;1.30;80.50
3842;DHT22;1936;47.074;15.336;2023-03-04T01:25:42;1.40;80.50
3842;DHT22;1936;47.074;15.336;2023-03-04T01:27:46;1.30;80.40
3842;DHT22;1936;47.074;15.336;2023-03-04T01:29:49;1.20;80.40
3842;DHT22;1936;47.074;15.336;2023-03-04T01:31:53;1.30;80.50
3842;DHT22;1936;47.074;15.336;2023-03-04T01:33:56;1.30;80.30
3842;DHT22;1936;47.074;15.336;2023-03-04T01:36:00;1.20;80.30
3842;DHT22;1936;47.074;15.336;2023-03-04T01:38:04;1.20;80.90
3842;DHT22;1936;47.074;15.336;2023-03-04T01:40:09;1.10;81.60
3842;DHT22;1936;47.074;15.336;2023-03-04T01:42:17;1.10;82.30
3842;DHT22;1936;47.074;15.336;2023-03-04T01:44:22;1.10;82.20
3842;DHT22;1936;47.074;15.336;2023-03-04T01:46:25;1.10;81.90
3842;DHT22;1936;47.074;15.336;2023-03-04T01:48:31;1.10;81.70
3842;DHT22;1936;47.074;15.336;2023-03-04T01:50:37;1.00;81.10
3842;DHT22;1936;47.074;15.336;2023-03-04T01:52:41;1.10;81.10
3842;DHT22;1936;47.074;15.336;2023-03-04T01:54:45;1.10;81.00
3842;DHT22;1936;47.074;15.336;2023-03-04T01:56:51;1.10;80.60
3842;DHT22;1936;47.074;15.336;2023-03-04T01:59:11;1.20;80.30
3842;DHT22;1936;47.074;15.336;2023-03-04T02:01:15;1.00;81.40
3842;DHT22;1936;47.074;15.336;2023-03-04T02:03:20;1.10;81.20
3842;DHT22;1936;47.074;15.336;2023-03-04T02:05:24;1.20;80.50
3842;DHT22;1936;47.074;15.336;2023-03-04T02:07:28;1.10;80.40
3842;DHT22;1936;47.074;15.336;2023-03-04T02:09:33;1.00;81.00
3842;DHT22;1936;47.074;15.336;2023-03-04T02:11:38;1.00;80.60
3842;DHT22;1936;47.074;15.336;2023-03-04T02:13:42;1.00;80.00
3842;DHT22;1936;47.074;15.336;2023-03-04T02:15:47;1.00;80.20
3842;DHT22;1936;47.074;15.336;2023-03-04T02:17:51;1.00;80.20
3842;DHT22;1936;47.074;15.336;2023-03-04T02:20:00;0.90;80.40
3842;DHT22;1936;47.074;15.336;2023-03-04T02:22:05;0.80;80.80
3842;DHT22;1936;47.074;15.336;2023-03-04T02:24:13;0.90;81.40
3842;DHT22;1936;47.074;15.336;2023-03-04T02:26:20;0.90;81.00
3842;DHT22;1936;47.074;15.336;2023-03-04T02:28:24;0.90;82.10
3842;DHT22;1936;47.074;15.336;2023-03-04T02:30:27;0.90;81.20
3842;DHT22;1936;47.074;15.336;2023-03-04T02:32:31;0.80;81.30
3842;DHT22;1936;47.074;15.336;2023-03-04T02:34:35;0.90;81.60
3842;DHT22;1936;47.074;15.336;2023-03-04T02:36:39;0.90;81.30
3842;DHT22;1936;47.074;15.336;2023-03-04T02:38:43;0.90;80.60
3842;DHT22;1936;47.074;15.336;2023-03-04T02:40:48;0.80;80.50
3842;DHT22;1936;47.074;15.336;2023-03-04T02:42:57;0.80;80.90
3842;DHT22;1936;47.074;15.336;2023-03-04T02:45:01;0.80;80.80
3842;DHT22;1936;47.074;15.336;2023-03-04T02:47:07;0.80;80.40
3842;DHT22;1936;47.074;15.336;2023-03-04T02:49:11;0.70;80.20
3842;DHT22;1936;47.074;15.336;2023-03-04T02:51:14;0.60;80.90
3842;DHT22;1936;47.074;15.336;2023-03-04T02:53:19;0.70;81.20
3842;DHT22;1936;47.074;15.336;2023-03-04T02:55:23;0.70;81.70
3842;DHT22;1936;47.074;15.336;2023-03-04T02:57:26;0.70;81.40
3842;DHT22;1936;47.074;15.336;2023-03-04T02:59:31;0.80;81.70
3842;DHT22;1936;47.074;15.336;2023-03-04T03:01:35;0.80;82.30
3842;DHT22;1936;47.074;15.336;2023-03-04T03:03:38;0.80;82.00
3842;DHT22;1936;47.074;15.336;2023-03-04T03:05:45;0.80;81.70
3842;DHT22;1936;47.074;15.336;2023-03-04T03:07:49;0.80;81.70
3842;DHT22;1936;47.074;15.336;2023-03-04T03:09:52;0.80;81.90
3842;DHT22;1936;47.074;15.336;2023-03-04T03:11:56;0.80;81.80
3842;DHT22;1936;47.074;15.336;2023-03-04T03:13:59;0.80;82.20
3842;DHT22;1936;47.074;15.336;2023-03-04T03:16:05;0.90;82.50
3842;DHT22;1936;47.074;15.336;2023-03-04T03:18:09;0.80;82.30
3842;DHT22;1936;47.074;15.336;2023-03-04T03:20:14;0.80;82.40
3842;DHT22;1936;47.074;15.336;2023-03-04T03:22:18;0.80;82.70
3842;DHT22;1936;47.074;15.336;2023-03-04T03:24:21;0.90;82.60
3842;DHT22;1936;47.074;15.336;2023-03-04T03:26:25;0.90;82.50
3842;DHT22;1936;47.074;15.336;2023-03-04T03:28:29;0.90;82.00
3842;DHT22;1936;47.074;15.336;2023-03-04T03:30:32;0.90;81.80
3842;DHT22;1936;47.074;15.336;2023-03-04T03:32:37;0.90;82.00
3842;DHT22;1936;47.074;15.336;2023-03-04T03:34:41;0.80;82.20
3842;DHT22;1936;47.074;15.336;2023-03-04T03:36:44;0.80;82.00
3842;DHT22;1936;47.074;15.336;2023-03-04T03:38:48;0.70;82.20
3842;DHT22;1936;47.074;15.336;2023-03-04T03:40:52;0.80;81.70
3842;DHT22;1936;47.074;15.336;2023-03-04T03:42:56;0.80;82.20
3842;DHT22;1936;47.074;15.336;2023-03-04T03:44:59;0.80;82.60
3842;DHT22;1936;47.074;15.336;2023-03-04T03:47:03;0.80;83.00
3842;DHT22;1936;47.074;15.336;2023-03-04T03:49:08;0.70;82.40
3842;DHT22;1936;47.074;15.336;2023-03-04T03:51:11;0.80;82.30
3842;DHT22;1936;47.074;15.336;2023-03-04T03:53:15;0.80;81.40
3842;DHT22;1936;47.074;15.336;2023-03-04T03:55:18;0.90;81.80
3842;DHT22;1936;47.074;15.336;2023-03-04T03:57:22;0.80;82.10
3842;DHT22;1936;47.074;15.336;2023-03-04T03:59:26;0.90;82.30
3842;DHT22;1936;47.074;15.336;2023-03-04T04:01:29;0.90;82.20
3842;DHT22;1936;47.074;15.336;2023-03-04T04:03:34;1.00;82.90
3842;DHT22;1936;47.074;15.336;2023-03-04T04:05:39;0.90;82.50
3842;DHT22;1936;47.074;15.336;2023-03-04T04:07:43;1.00;82.20
3842;DHT22;1936;47.074;15.336;2023-03-04T04:09:47;1.00;82.20
3842;DHT22;1936;47.074;15.336;2023-03-04T04:11:50;1.00;82.20
3842;DHT22;1936;47.074;15.336;2023-03-04T04:13:54;1.00;81.70
3842;DHT22;1936;47.074;15.336;2023-03-04T04:15:57;1.00;81.50
3842;DHT22;1936;47.074;15.336;2023-03-04T04:18:01;1.00;81.90
3842;DHT22;1936;47.074;15.336;2023-03-04T04:20:06;1.00;82.00
3842;DHT22;1936;47.074;15.336;2023-03-04T04:22:13;0.90;82.70
3842;DHT22;1936;47.074;15.336;2023-03-04T04:24:17;1.00;81.90
3842;DHT22;1936;47.074;15.336;2023-03-04T04:26:20;1.00;81.80
3842;DHT22;1936;47.074;15.336;2023-03-04T04:28:24;0.90;81.50
3842;DHT22;1936;47.074;15.336;2023-03-04T04:30:27;1.00;81.20
3842;DHT22;1936;47.074;15.336;2023-03-04T04:32:31;0.90;80.70
3842;DHT22;1936;47.074;15.336;2023-03-04T04:34:34;0.90;80.70
3842;DHT22;1936;47.074;15.336;2023-03-04T04:36:38;0.80;81.00
3842;DHT22;1936;47.074;15.336;2023-03-04T04:38:43;0.80;81.40
3842;DHT22;1936;47.074;15.336;2023-03-04T04:40:47;0.70;81.40
3842;DHT22;1936;47.074;15.336;2023-03-04T04:42:51;0.60;81.40
3842;DHT22;1936;47.074;15.336;2023-03-04T04:44:54;0.60;81.30
3842;DHT22;1936;47.074;15.336;2023-03-04T04:46:58;0.60;80.70
3842;DHT22;1936;47.074;15.336;2023-03-04T04:49:02;0.60;80.80
3842;DHT22;1936;47.074;15.336;2023-03-04T04:51:06;0.60;81.30
3842;DHT22;1936;47.074;15.336;2023-03-04T04:53:11;0.60;81.50
3842;DHT22;1936;47.074;15.336;2023-03-04T04:55:17;0.60;81.90
3842;DHT22;1936;47.074;15.336;2023-03-04T04:57:20;0.50;82.00
3842;DHT22;1936;47.074;15.336;2023-03-04T04:59:24;0.50;82.20
3842;DHT22;1936;47.074;15.336;2023-03-04T05:01:27;0.50;82.50
3842;DHT22;1936;47.074;15.336;2023-03-04T05:03:31;0.50;81.70
3842;DHT22;1936;47.074;15.336;2023-03-04T05:05:35;0.50;80.90
3842;DHT22;1936;47.074;15.336;2023-03-04T05:07:39;0.50;80.90
3842;DHT22;1936;47.074;15.336;2023-03-04T05:09:42;0.40;81.00
3842;DHT22;1936;47.074;15.336;2023-03-04T05:11:48;0.20;81.10
3842;DHT22;1936;47.074;15.336;2023-03-04T05:13:52;0.20;80.50
3842;DHT22;1936;47.074;15.336;2023-03-04T05:15:56;0.20;80.90
3842;DHT22;1936;47.074;15.336;2023-03-04T05:18:00;0.30;80.50
3842;DHT22;1936;47.074;15.336;2023-03-04T05:20:04;0.30;79.80
3842;DHT22;1936;47.074;15.336;2023-03-04T05:22:09;0.20;80.30
3842;DHT22;1936;47.074;15.336;2023-03-04T05:24:13;0.20;81.50
3842;DHT22;1936;47.074;15.336;2023-03-04T05:26:17;0.20;81.70
3842;DHT22;1936;47.074;15.336;2023-03-04T05:28:22;0.20;82.40
3842;DHT22;1936;47.074;15.336;2023-03-04T05:30:26;0.20;82.30
3842;DHT22;1936;47.074;15.336;2023-03-04T05:32:30;0.20;81.60
3842;DHT22;1936;47.074;15.336;2023-03-04T05:34:33;0.20;81.10
3842;DHT22;1936;47.074;15.336;2023-03-04T05:36:37;0.20;80.60
3842;DHT22;1936;47.074;15.336;2023-03-04T05:38:40;0.20;80.60
3842;DHT22;1936;47.074;15.336;2023-03-04T05:40:44;0.10;81.10
3842;DHT22;1936;47.074;15.336;2023-03-04T05:42:48;0.10;81.40
3842;DHT22;1936;47.074;15.336;2023-03-04T05:44:53;0.10;81.20
3842;DHT22;1936;47.074;15.336;2023-03-04T05:46:56;0.00;82.00
3842;DHT22;1936;47.074;15.336;2023-03-04T05:49:00;0.20;81.90
3842;DHT22;1936;47.074;15.336;2023-03-04T05:51:04;0.10;82.00
3842;DHT22;1936;47.074;15.336;2023-03-04T05:53:07;0.20;81.80
3842;DHT22;1936;47.074;15.336;2023-03-04T05:55:11;0.20;82.10
3842;DHT22;1936;47.074;15.336;2023-03-04T05:57:15;0.30;82.50
3842;DHT22;1936;47.074;15.336;2023-03-04T05:59:18;0.40;82.30
3842;DHT22;1936;47.074;15.336;2023-03-04T06:01:23;0.50;82.00
3842;DHT22;1936;47.074;15.336;2023-03-04T06:03:27;0.30;81.90
3842;DHT22;1936;47.074;15.336;2023-03-04T06:05:30;0.40;81.90
3842;DHT22;1936;47.074;15.336;2023-03-04T06:07:34;0.50;80.90
3842;DHT22;1936;47.074;15.336;2023-03-04T06:09:38;0.60;80.90
3842;DHT22;1936;47.074;15.336;2023-03-04T06:11:41;0.60;80.70
3842;DHT22;1936;47.074;15.336;2023-03-04T06:13:45;0.60;80.80
3842;DHT22;1936;47.074;15.336;2023-03-04T06:15:53;0.70;81.20
3842;DHT22;1936;47.074;15.336;2023-03-04T06:17:58;0.50;82.20
3842;DHT22;1936;47.074;15.336;2023-03-04T06:20:03;0.60;82.20
3842;DHT22;1936;47.074;15.336;2023-03-04T06:22:08;0.80;82.30
3842;DHT22;1936;47.074;15.336;2023-03-04T06:24:12;0.90;82.60
3842;DHT22;1936;47.074;15.336;2023-03-04T06:26:15;1.00;82.80
3842;DHT22;1936;47.074;15.336;2023-03-04T06:28:22;1.10;82.70
3842;DHT22;1936;47.074;15.336;2023-03-04T06:30:27;1.20;82.60
3842;DHT22;1936;47.074;15.336;2023-03-04T06:32:30;1.30;82.20
3842;DHT22;1936;47.074;15.336;2023-03-04T06:34:35;1.40;81.80
3842;DHT22;1936;47.074;15.336;2023-03-04T06:36:39;1.50;81.90
3842;DHT22;1936;47.074;15.336;2023-03-04T06:38:42;1.60;81.80
3842;DHT22;1936;47.074;15.336;2023-03-04T06:40:46;1.60;82.00
3842;DHT22;1936;47.074;15.336;2023-03-04T06:42:50;1.60;82.00
3842;DHT22;1936;47.074;15.336;2023-03-04T06:44:53;1.80;82.50
3842;DHT22;1936;47.074;15.336;2023-03-04T06:46:57;1.90;82.40
3842;DHT22;1936;47.074;15.336;2023-03-04T06:49:00;2.10;81.90
3842;DHT22;1936;47.074;15.336;2023-03-04T06:51:06;2.00;82.00
3842;DHT22;1936;47.074;15.336;2023-03-04T06:53:10;2.10;82.30
3842;DHT22;1936;47.074;15.336;2023-03-04T06:55:13;2.00;81.70
3842;DHT22;1936;47.074;15.336;2023-03-04T06:57:17;2.20;81.50
3842;DHT22;1936;47.074;15.336;2023-03-04T06:59:21;2.50;81.20
3842;DHT22;1936;47.074;15.336;2023-03-04T07:01:27;2.70;81.40
3842;DHT22;1936;47.074;15.336;2023-03-04T07:03:30;2.70;81.10
3842;DHT22;1936;47.074;15.336;2023-03-04T07:05:34;2.90;81.20
3842;DHT22;1936;47.074;15.336;2023-03-04T07:07:39;2.90;81.00
3842;DHT22;1936;47.074;15.336;2023-03-04T07:09:43;3.10;80.90
3842;DHT22;1936;47.074;15.336;2023-03-04T07:11:46;3.10;80.10
3842;DHT22;1936;47.074;15.336;2023-03-04T07:13:50;3.30;80.90
3842;DHT22;1936;47.074;15.336;2023-03-04T07:15:54;4.20;83.20
3842;DHT22;1936;47.074;15.336;2023-03-04T07:17:57;5.70;79.50
3842;DHT22;1936;47.074;15.336;2023-03-04T07:20:01;7.90;76.60
3842;DHT22;1936;47.074;15.336;2023-03-04T07:22:04;10.00;70.70
3842;DHT22;1936;47.074;15.336;2023-03-04T07:24:09;11.90;64.70
3842;DHT22;1936;47.074;15.336;2023-03-04T07:26:13;13.50;59.10
3842;DHT22;1936;47.074;15.336;2023-03-04T07:28:16;14.60;51.30
3842;DHT22;1936;47.074;15.336;2023-03-04T07:30:20;15.50;46.60
3842;DHT22;1936;47.074;15.336;2023-03-04T07:32:24;15.40;46.00
3842;DHT22;1936;47.074;15.336;2023-03-04T07:34:28;15.00;45.60
3842;DHT22;1936;47.074;15.336;2023-03-04T07:36:32;14.50;47.20
3842;DHT22;1936;47.074;15.336;2023-03-04T07:38:36;15.00;47.40
3842;DHT22;1936;47.074;15.336;2023-03-04T07:40:41;16.10;49.70
3842;DHT22;1936;47.074;15.336;2023-03-04T07:42:48;17.20;49.60
3842;DHT22;1936;47.074;15.336;2023-03-04T07:44:52;18.00;46.40
3842;DHT22;1936;47.074;15.336;2023-03-04T07:46:56;18.70;44.60
3842;DHT22;1936;47.074;15.336;2023-03-04T07:48:59;19.40;40.90
3842;DHT22;1936;47.074;15.336;2023-03-04T07:51:08;20.00;38.40
3842;DHT22;1936;47.074;15.336;2023-03-04T07:53:11;21.20;37.90
3842;DHT22;1936;47.074;15.336;2023-03-04T07:55:15;21.80;35.70
3842;DHT22;1936;47.074;15.336;2023-03-04T07:57:20;21.70;33.50
3842;DHT22;1936;47.074;15.336;2023-03-04T07:59:23;22.10;35.00
3842;DHT22;1936;47.074;15.336;2023-03-04T08:01:28;21.80;33.50
3842;DHT22;1936;47.074;15.336;2023-03-04T08:03:32;22.40;34.40
3842;DHT22;1936;47.074;15.336;2023-03-04T08:05:38;22.40;33.80
3842;DHT22;1936;47.074;15.336;2023-03-04T08:07:42;23.00;32.80
3842;DHT22;1936;47.074;15.336;2023-03-04T08:09:45;23.80;32.00
3842;DHT22;1936;47.074;15.336;2023-03-04T08:11:49;23.80;31.60
3842;DHT22;1936;47.074;15.336;2023-03-04T08:13:54;24.10;32.50
3842;DHT22;1936;47.074;15.336;2023-03-04T08:15:57;24.70;31.00
3842;DHT22;1936;47.074;15.336;2023-03-04T08:18:01;25.20;28.70
3842;DHT22;1936;47.074;15.336;2023-03-04T08:20:06;25.50;27.70
3842;DHT22;1936;47.074;15.336;2023-03-04T08:22:09;26.30;28.20
3842;DHT22;1936;47.074;15.336;2023-03-04T08:24:13;26.40;27.70
3842;DHT22;1936;47.074;15.336;2023-03-04T08:26:18;27.00;25.60
3842;DHT22;1936;47.074;15.336;2023-03-04T08:28:22;27.60;26.70
3842;DHT22;1936;47.074;15.336;2023-03-04T08:30:27;27.60;22.40
3842;DHT22;1936;47.074;15.336;2023-03-04T08:32:30;28.60;22.20
3842;DHT22;1936;47.074;15.336;2023-03-04T08:34:34;28.90;22.80
3842;DHT22;1936;47.074;15.336;2023-03-04T08:36:41;28.90;22.10
3842;DHT22;1936;47.074;15.336;2023-03-04T08:38:45;29.30;23.50
3842;DHT22;1936;47.074;15.336;2023-03-04T08:40:51;28.30;19.90
3842;DHT22;1936;47.074;15.336;2023-03-04T08:42:55;28.10;21.20
3842;DHT22;1936;47.074;15.336;2023-03-04T08:44:59;28.10;23.00
3842;DHT22;1936;47.074;15.336;2023-03-04T08:47:04;29.10;21.20
3842;DHT22;1936;47.074;15.336;2023-03-04T08:49:11;29.10;21.40
3842;DHT22;1936;47.074;15.336;2023-03-04T08:51:15;29.20;20.40
3842;DHT22;1936;47.074;15.336;2023-03-04T08:53:20;28.80;20.40
3842;DHT22;1936;47.074;15.336;2023-03-04T08:55:23;29.20;21.90
3842;DHT22;1936;47.074;15.336;2023-03-04T08:57:27;29.70;21.00
3842;DHT22;1936;47.074;15.336;2023-03-04T08:59:30;29.10;19.70
3842;DHT22;1936;47.074;15.336;2023-03-04T09:01:34;29.40;21.70
3842;DHT22;1936;47.074;15.336;2023-03-04T09:03:40;29.70;20.70
3842;DHT22;1936;47.074;15.336;2023-03-04T09:05:45;29.70;20.20
3842;DHT22;1936;47.074;15.336;2023-03-04T09:07:48;29.40;20.40
3842;DHT22;1936;47.074;15.336;2023-03-04T09:09:52;29.10;19.40
3842;DHT22;1936;47.074;15.336;2023-03-04T09:11:55;29.60;19.60
3842;DHT22;1936;47.074;15.336;2023-03-04T09:13:59;29.10;20.80
3842;DHT22;1936;47.074;15.336;2023-03-04T09:16:04;29.40;20.70
3842;DHT22;1936;47.074;15.336;2023-03-04T09:18:11;29.50;21.50
3842;DHT22;1936;47.074;15.336;2023-03-04T09:20:16;29.40;19.50
3842;DHT22;1936;47.074;15.336;2023-03-04T09:22:19;29.20;20.10
3842;DHT22;1936;47.074;15.336;2023-03-04T09:24:23;29.80;19.90
3842;DHT22;1936;47.074;15.336;2023-03-04T09:26:28;30.70;19.10
3842;DHT22;1936;47.074;15.336;2023-03-04T09:28:31;30.90;19.10
3842;DHT22;1936;47.074;15.336;2023-03-04T09:30:35;29.80;20.30
3842;DHT22;1936;47.074;15.336;2023-03-04T09:32:39;30.20;19.60
3842;DHT22;1936;47.074;15.336;2023-03-04T09:34:42;30.20;20.50
3842;DHT22;1936;47.074;15.336;2023-03-04T09:36:47;30.80;19.90
3842;DHT22;1936;47.074;15.336;2023-03-04T09:38:52;30.10;18.40
3842;DHT22;1936;47.074;15.336;2023-03-04T09:40:55;31.20;19.00
3842;DHT22;1936;47.074;15.336;2023-03-04T09:43:01;31.30;19.40
3842;DHT22;1936;47.074;15.336;2023-03-04T09:45:07;30.80;18.60
3842;DHT22;1936;47.074;15.336;2023-03-04T09:47:13;31.70;19.40
3842;DHT22;1936;47.074;15.336;2023-03-04T09:49:19;31.40;18.00
3842;DHT22;1936;47.074;15.336;2023-03-04T09:51:38;31.30;18.30
3842;DHT22;1936;47.074;15.336;2023-03-04T09:53:52;31.30;17.70
3842;DHT22;1936;47.074;15.336;2023-03-04T09:56:01;30.20;18.60
3842;DHT22;1936;47.074;15.336;2023-03-04T09:58:13;29.70;20.20
3842;DHT22;1936;47.074;15.336;2023-03-04T10:00:23;29.80;18.70
3842;DHT22;1936;47.074;15.336;2023-03-04T10:02:34;29.30;20.50
3842;DHT22;1936;47.074;15.336;2023-03-04T10:04:47;29.40;18.80
3842;DHT22;1936;47.074;15.336;2023-03-04T10:06:52;30.10;20.40
3842;DHT22;1936;47.074;15.336;2023-03-04T10:09:00;29.80;19.10
3842;DHT22;1936;47.074;15.336;2023-03-04T10:11:10;30.40;18.70
3842;DHT22;1936;47.074;15.336;2023-03-04T10:13:18;30.60;19.10
3842;DHT22;1936;47.074;15.336;2023-03-04T10:15:29;31.10;18.20
3842;DHT22;1936;47.074;15.336;2023-03-04T10:17:35;29.40;18.60
3842;DHT22;1936;47.074;15.336;2023-03-04T10:19:54;29.80;19.40
3842;DHT22;1936;47.074;15.336;2023-03-04T10:21:59;29.40;18.80
3842;DHT22;1936;47.074;15.336;2023-03-04T10:24:11;30.30;19.80
3842;DHT22;1936;47.074;15.336;2023-03-04T10:26:17;29.90;18.30
3842;DHT22;1936;47.074;15.336;2023-03-04T10:28:25;30.10;17.80
3842;DHT22;1936;47.074;15.336;2023-03-04T10:30:47;28.70;19.30
3842;DHT22;1936;47.074;15.336;2023-03-04T10:32:52;29.00;20.50
3842;DHT22;1936;47.074;15.336;2023-03-04T10:34:57;28.50;19.60
3842;DHT22;1936;47.074;15.336;2023-03-04T10:37:01;28.30;20.40
3842;DHT22;1936;47.074;15.336;2023-03-04T10:39:10;29.10;20.20
3842;DHT22;1936;47.074;15.336;2023-03-04T10:41:16;29.00;19.90
3842;DHT22;1936;47.074;15.336;2023-03-04T10:43:22;29.50;18.90
3842;DHT22;1936;47.074;15.336;2023-03-04T10:45:29;29.80;19.90
3842;DHT22;1936;47.074;15.336;2023-03-04T10:47:36;29.20;18.90
3842;DHT22;1936;47.074;15.336;2023-03-04T10:49:50;29.60;18.20
3842;DHT22;1936;47.074;15.336;2023-03-04T10:52:00;29.70;19.20
3842;DHT22;1936;47.074;15.336;2023-03-04T10:54:09;28.70;19.20
3842;DHT22;1936;47.074;15.336;2023-03-04T10:56:32;28.50;18.20
3842;DHT22;1936;47.074;15.336;2023-03-04T10:58:36;28.60;19.20
3842;DHT22;1936;47.074;15.336;2023-03-04T11:00:39;28.40;20.90
3842;DHT22;1936;47.074;15.336;2023-03-04T11:02:44;28.50;19.80
3842;DHT22;1936;47.074;15.336;2023-03-04T11:04:53;28.80;18.80
3842;DHT22;1936;47.074;15.336;2023-03-04T11:06:57;27.50;19.20
3842;DHT22;1936;47.074;15.336;2023-03-04T11:09:01;28.30;20.30
3842;DHT22;1936;47.074;15.336;2023-03-04T11:11:29;28.00;21.00
3842;DHT22;1936;47.074;15.336;2023-03-04T11:13:35;27.90;20.70
3842;DHT22;1936;47.074;15.336;2023-03-04T11:15:49;28.10;20.10
3842;DHT22;1936;47.074;15.336;2023-03-04T11:17:55;27.80;19.20
3842;DHT22;1936;47.074;15.336;2023-03-04T11:20:08;28.40;19.60
3842;DHT22;1936;47.074;15.336;2023-03-04T11:22:16;28.30;19.60
3842;DHT22;1936;47.074;15.336;2023-03-04T11:24:24;28.40;19.40
3842;DHT22;1936;47.074;15.336;2023-03-04T11:26:35;28.00;20.70
3842;DHT22;1936;47.074;15.336;2023-03-04T11:28:43;27.70;20.10
3842;DHT22;1936;47.074;15.336;2023-03-04T11:30:52;27.90;20.10
3842;DHT22;1936;47.074;15.336;2023-03-04T11:33:05;27.80;20.40
3842;DHT22;1936;47.074;15.336;2023-03-04T11:35:19;28.50;20.20
3842;DHT22;1936;47.074;15.336;2023-03-04T11:37:29;27.90;20.50
3842;DHT22;1936;47.074;15.336;2023-03-04T11:39:35;28.10;19.50
3842;DHT22;1936;47.074;15.336;2023-03-04T11:41:46;27.70;20.80
3842;DHT22;1936;47.074;15.336;2023-03-04T11:43:52;27.40;20.90
3842;DHT22;1936;47.074;15.336;2023-03-04T11:48:48;28.20;20.70
3842;DHT22;1936;47.074;15.336;2023-03-04T11:50:57;27.30;19.70
3842;DHT22;1936;47.074;15.336;2023-03-04T11:53:28;27.00;19.70
3842;DHT22;1936;47.074;15.336;2023-03-04T11:55:40;27.20;20.50
3842;DHT22;1936;47.074;15.336;2023-03-04T11:57:53;28.20;18.70
3842;DHT22;1936;47.074;15.336;2023-03-04T12:00:30;28.40;19.40
3842;DHT22;1936;47.074;15.336;2023-03-04T12:02:45;28.60;19.60
3842;DHT22;1936;47.074;15.336;2023-03-04T12:05:12;29.20;18.30
3842;DHT22;1936;47.074;15.336;2023-03-04T12:07:32;29.10;18.10
3842;DHT22;1936;47.074;15.336;2023-03-04T12:09:45;29.60;18.10
3842;DHT22;1936;47.074;15.336;2023-03-04T12:12:00;29.50;19.20
3842;DHT22;1936;47.074;15.336;2023-03-04T12:14:22;29.20;19.00
3842;DHT22;1936;47.074;15.336;2023-03-04T12:16:40;29.60;19.20
3842;DHT22;1936;47.074;15.336;2023-03-04T12:19:01;30.00;19.00
3842;DHT22;1936;47.074;15.336;2023-03-04T12:21:22;29.10;18.90
3842;DHT22;1936;47.074;15.336;2023-03-04T12:23:43;29.60;19.20
3842;DHT22;1936;47.074;15.336;2023-03-04T12:25:56;29.80;19.30
3842;DHT22;1936;47.074;15.336;2023-03-04T12:28:14;29.30;20.10
3842;DHT22;1936;47.074;15.336;2023-03-04T12:30:34;28.50;18.30
3842;DHT22;1936;47.074;15.336;2023-03-04T12:32:48;28.50;19.00
3842;DHT22;1936;47.074;15.336;2023-03-04T12:35:14;28.30;20.10
3842;DHT22;1936;47.074;15.336;2023-03-04T12:37:40;29.00;18.90
3842;DHT22;1936;47.074;15.336;2023-03-04T12:40:01;29.20;18.20
3842;DHT22;1936;47.074;15.336;2023-03-04T12:42:17;30.10;18.20
3842;DHT22;1936;47.074;15.336;2023-03-04T12:44:23;29.50;18.80
3842;DHT22;1936;47.074;15.336;2023-03-04T12:46:36;29.50;19.30
3842;DHT22;1936;47.074;15.336;2023-03-04T12:48:47;30.00;19.60
3842;DHT22;1936;47.074;15.336;2023-03-04T12:51:02;29.60;20.20
3842;DHT22;1936;47.074;15.336;2023-03-04T12:53:18;29.10;19.40
3842;DHT22;1936;47.074;15.336;2023-03-04T12:55:28;28.20;19.50
3842;DHT22;1936;47.074;15.336;2023-03-04T12:57:34;28.00;19.60
3842;DHT22;1936;47.074;15.336;2023-03-04T12:59:43;26.60;19.20
3842;DHT22;1936;47.074;15.336;2023-03-04T13:01:58;27.30;21.00
3842;DHT22;1936;47.074;15.336;2023-03-04T13:04:08;28.20;19.90
3842;DHT22;1936;47.074;15.336;2023-03-04T13:06:20;27.70;21.20
3842;DHT22;1936;47.074;15.336;2023-03-04T13:08:32;27.70;20.60
3842;DHT22;1936;47.074;15.336;2023-03-04T13:10:38;28.10;19.40
3842;DHT22;1936;47.074;15.336;2023-03-04T13:12:46;28.90;19.90
3842;DHT22;1936;47.074;15.336;2023-03-04T13:15:25;27.70;19.00
3842;DHT22;1936;47.074;15.336;2023-03-04T13:17:42;28.00;21.30
3842;DHT22;1936;47.074;15.336;2023-03-04T13:19:50;27.80;21.00
3842;DHT22;1936;47.074;15.336;2023-03-04T13:21:54;28.10;19.50
3842;DHT22;1936;47.074;15.336;2023-03-04T13:24:01;28.00;20.70
3842;DHT22;1936;47.074;15.336;2023-03-04T13:26:29;28.00;19.00
3842;DHT22;1936;47.074;15.336;2023-03-04T13:28:35;27.90;19.00
3842;DHT22;1936;47.074;15.336;2023-03-04T13:33:48;27.80;18.70
3842;DHT22;1936;47.074;15.336;2023-03-04T13:35:58;27.50;20.50
3842;DHT22;1936;47.074;15.336;2023-03-04T13:38:20;27.20;18.50
3842;DHT22;1936;47.074;15.336;2023-03-04T13:40:35;27.10;18.80
3842;DHT22;1936;47.074;15.336;2023-03-04T13:42:40;27.00;20.60
3842;DHT22;1936;47.074;15.336;2023-03-04T13:44:59;26.70;20.90